Terminal Aerodrome Forecast
Issued by NWS

Home | Current Version | Previous Version | Text Only | Print | Product List | Glossary On
Versions: 1 2 3 4 5 6 7 8 9 10 11 12 13 14 15 16 17 18
000
FTUS41 KPBZ 211800 AAA
TAFMGW
TAF AMD
KMGW 211850Z 2119/2218 24010KT P6SM BKN015 BKN025
     FM212000 25010G15KT P6SM VCSH SCT035 BKN050
      TEMPO 2120/2122 27015G25KT -TSRA BKN035CB
     FM220000 28010G15KT P6SM BKN040
     FM220100 31008KT P6SM BKN025=

USA.gov is the U.S. government's official web portal to all federal, state and local government web resources and services.